Terminal Aerodrome Forecast
Issued by NWS

Home | Current Version | Previous Version | Graphics & Text | Print | Product List | Glossary On
Versions: 1 2 3 4 5 6 7 8 9 10 11 12 13 14 15 16 17 18 19 20 21 22 23 24 25 26 27 28 29
619
FTUS45 KGGW 120520
TAFOLF
TAF
KOLF 120520Z 1206/1306 07005KT P6SM OVC021
     FM120900 07009KT P6SM VCSH OVC025
     FM121200 08010KT P6SM BKN025
     FM130000 10012KT P6SM VCSH OVC015=

USA.gov is the U.S. government's official web portal to all federal, state and local government web resources and services.